Flight Track Log - Related Links

Times and Time Zones

All times are in EDT time to prevent confusion due to time zone crossing. See the JBU1721 flight status page for this flight to view local times or setup timezone preferences in your user account.

Time Position Orientation Groundspeed Altitude Reporting Facility
EDT Latitude Longitude Course Direction KTS MPH feet Rate Location/Type
Fri 02:52:00 PM 28.4500 -81.3167 139° Southeast 158 182 700  Level Orlando TRACON
Fri 02:52:55 PM 28.4667 -81.2833 60° Northeast 207 238 1,900 2,037 Climbing Orlando TRACON
Fri 02:53:49 PM 28.5000 -81.2333 53° Northeast 234 269 4,400 2,750 Climbing Orlando TRACON
Fri 02:54:00 PM 28.1070 -81.1893 134° Southeast  Level Estimated
Fri 02:54:55 PM 28.4833 -81.1500 103° East 244 281 7,400  Level Orlando TRACON
Fri 02:55:00 PM 27.9995 -81.1496 139° Southeast  Level Estimated
Fri 02:55:55 PM 28.4667 -81.0667 103° East 291 335 9,700  Level Orlando TRACON
Fri 02:56:00 PM 27.8919 -81.1100 139° Southeast  Level Estimated
Fri 02:57:00 PM 27.7844 -81.0704 139° Southeast  Level Estimated
Fri 03:01:16 PM 28.1740 -80.6820 103° East 377 434 19,600  Level FlightAware ADS-B
Fri 03:01:49 PM 28.1180 -80.6600 161° South 383 441 20,600 1,935 Climbing FlightAware ADS-B
Fri 03:02:18 PM 28.0700 -80.6410 161° South 378 435 21,600 1,569 Climbing FlightAware ADS-B
Fri 03:02:54 PM 28.0160 -80.6200 161° South 379 436 22,300 1,343 Climbing FlightAware ADS-B
Fri 03:03:25 PM 27.9590 -80.5980 161° South 391 450 23,100 1,295 Climbing FlightAware ADS-B
Fri 03:04:22 PM 27.8650 -80.5610 161° South 392 451 24,200 702 Climbing FlightAware ADS-B
Fri 03:04:59 PM 27.8110 -80.5390 160° South 392 451 24,200  Level FlightAware ADS-B
Fri 03:05:35 PM 27.7590 -80.5170 159° South 392 451 24,200  Level FlightAware ADS-B
Fri 03:06:11 PM 27.7070 -80.4960 160° South 392 451 24,200  Level FlightAware ADS-B
Fri 03:06:48 PM 27.6530 -80.4740 160° South 392 451 24,200  Level FlightAware ADS-B
Fri 03:07:36 PM 27.5840 -80.4450 160° South 392 451 24,200  Level FlightAware ADS-B
Fri 03:08:14 PM 27.5290 -80.4230 160° South 392 451 24,200 2,564 Level FlightAware ADS-B
Fri 03:09:26 PM 27.3080 -80.3400 162° South 412 474 28,900 3,193 Climbing FlightAware ADS-B
Fri 03:10:03 PM 27.2480 -80.2960 147° Southeast 402 463 30,000 2,060 Climbing FlightAware ADS-B
Fri 03:10:33 PM 27.2010 -80.2580 144° Southeast 392 451 31,200 2,000 Climbing FlightAware ADS-B
Fri 03:10:54 PM 27.1710 -80.2340 145° Southeast 382 440 31,700 800 Climbing FlightAware ADS-B
Fri 03:11:48 PM 27.0940 -80.1730 145° Southeast 400 460 32,200 552 Climbing FlightAware ADS-B
Fri 03:12:21 PM 27.0390 -80.1300 145° Southeast 400 460 32,500 522 Climbing FlightAware ADS-B
Fri 03:12:57 PM 26.9780 -80.0930 152° Southeast 408 470 32,800 500 Climbing FlightAware ADS-B
Fri 03:13:33 PM 26.9140 -80.0600 155° Southeast 424 488 33,100 493 Climbing FlightAware ADS-B
Fri 03:14:10 PM 26.8480 -80.0260 155° Southeast 422 486 33,400 486 Climbing FlightAware ADS-B
Fri 03:14:47 PM 26.7840 -79.9950 157° South 435 501 33,700 500 Climbing FlightAware ADS-B
Fri 03:15:22 PM 26.7190 -79.9710 162° South 434 499 34,000 545 Climbing FlightAware ADS-B
Fri 03:15:53 PM 26.6510 -79.9480 163° South 439 505 34,300 537 Climbing FlightAware ADS-B
Fri 03:16:29 PM 26.5800 -79.9240 163° South 453 521 34,600 833 Climbing FlightAware ADS-B
Fri 03:17:05 PM 26.5090 -79.8900 157° South 439 505 35,300 1,075 Climbing FlightAware ADS-B
Fri 03:17:36 PM 26.4530 -79.8680 161° South 437 503 35,800 716 Climbing FlightAware ADS-B
Fri 03:18:12 PM 26.3780 -79.8430 163° South 441 507 36,100 500 Climbing FlightAware ADS-B
Fri 03:18:48 PM 26.3080 -79.8200 164° South 451 519 36,400 500 Climbing FlightAware ADS-B
Fri 03:19:24 PM 26.2340 -79.7950 163° South 453 521 36,700 500 Climbing FlightAware ADS-B
Fri 03:20:00 PM 26.1630 -79.7710 163° South 453 521 37,000 214 Climbing FlightAware ADS-B
Fri 03:20:48 PM 26.0690 -79.7410 164° South 452 520 37,000  Level FlightAware ADS-B
Fri 03:21:27 PM 25.9830 -79.7210 168° South 444 511 37,000  Level FlightAware ADS-B
Fri 03:21:59 PM 25.9190 -79.7070 169° South 446 513 37,000  Level FlightAware ADS-B
Fri 03:22:24 PM 25.8670 -79.6950 168° South 446 513 37,000  Level FlightAware ADS-B
Fri 03:23:21 PM 25.7470 -79.6660 168° South 446 513 37,000  Level FlightAware ADS-B
Fri 03:23:55 PM 25.6800 -79.6500 168° South 445 512 37,000  Level FlightAware ADS-B
Fri 03:24:29 PM 25.6100 -79.6340 168° South 442 509 37,000  Level FlightAware ADS-B
Fri 03:25:03 PM 25.5420 -79.6180 168° South 443 510 37,000  Level FlightAware ADS-B
Fri 03:25:39 PM 25.4690 -79.6010 168° South 450 518 37,000  Level FlightAware ADS-B
Fri 03:26:10 PM 25.4080 -79.5870 168° South 454 522 37,000 86 Level FlightAware ADS-B
Fri 03:26:49 PM 25.3270 -79.5680 168° South 448 516 37,100 80 Climbing FlightAware ADS-B
Fri 03:27:25 PM 25.2560 -79.5510 168° South 448 516 37,100  Level FlightAware ADS-B
Fri 03:27:59 PM 25.1880 -79.5350 168° South 445 512 37,100 -86 Level FlightAware ADS-B
Fri 03:28:35 PM 25.1080 -79.5170 168° South 450 518 37,000 -85 Descending FlightAware ADS-B
Fri 03:29:10 PM 25.0370 -79.5000 168° South 446 513 37,000  Level FlightAware ADS-B
Fri 03:29:50 PM 24.9590 -79.4820 168° South 444 511 37,000  Level FlightAware ADS-B
Fri 03:30:24 PM 24.8890 -79.4660 168° South 443 510 37,000  Level FlightAware ADS-B
Fri 03:31:00 PM 24.8190 -79.4500 168° South 442 509 37,000  Level FlightAware ADS-B
Fri 03:31:51 PM 24.7130 -79.4250 168° South 440 506 37,000  Level FlightAware ADS-B
Fri 03:32:27 PM 24.6430 -79.4090 168° South 431 496 37,000  Level FlightAware ADS-B
Fri 03:33:04 PM 24.5700 -79.3920 168° South 430 495 37,000  Level FlightAware ADS-B
Fri 03:33:39 PM 24.5010 -79.3760 168° South 431 496 37,000  Level FlightAware ADS-B
Fri 03:34:16 PM 24.4260 -79.3590 168° South 431 496 37,000  Level FlightAware ADS-B
Fri 03:34:52 PM 24.3550 -79.3430 168° South 441 507 37,000  Level FlightAware ADS-B
Fri 03:35:23 PM 24.2920 -79.3280 168° South 442 509 37,000  Level FlightAware ADS-B
Fri 03:35:59 PM 24.2210 -79.3120 168° South 444 511 37,000  Level FlightAware ADS-B
Fri 03:36:35 PM 24.1470 -79.2950 168° South 446 513 37,000 83 Level FlightAware ADS-B
Fri 03:37:11 PM 24.0750 -79.2790 169° South 445 512 37,100 77 Climbing FlightAware ADS-B
Fri 03:37:53 PM 23.9910 -79.2590 168° South 442 509 37,100 -78 Level FlightAware ADS-B
Fri 03:38:28 PM 23.9250 -79.2440 168° South 442 509 37,000 -70 Descending FlightAware ADS-B
Fri 03:39:19 PM 23.8270 -79.2300 173° South 435 501 37,000  Level FlightAware ADS-B
Fri 03:39:51 PM 23.7590 -79.2270 178° South 434 499 37,000  Level FlightAware ADS-B
Fri 03:40:47 PM 23.6450 -79.2180 176° South 433 498 37,000  Level FlightAware ADS-B
Fri 03:41:21 PM 23.5760 -79.2130 176° South 432 497 37,000  Level FlightAware ADS-B
Fri 03:42:02 PM 23.4980 -79.2050 175° South 432 497 37,000  Level FlightAware ADS-B
Fri 03:42:42 PM 23.4300 -79.2000 176° South 433 498 37,000  Level FlightAware ADS-B
Fri 03:43:38 PM 23.3040 -79.1900 176° South 434 499 37,000  Level FlightAware ADS-B
Fri 03:44:15 PM 23.2410 -79.1840 175° South 434 499 37,000  Level FlightAware ADS-B
Fri 03:44:51 PM 23.1800 -79.1790 176° South 434 499 37,000  Level FlightAware ADS-B
Fri 03:45:27 PM 23.1180 -79.1730 175° South 434 499 37,000  Level FlightAware ADS-B
Fri 03:46:04 PM 23.0560 -79.1670 175° South 434 499 37,000  Level FlightAware ADS-B
Fri 03:46:41 PM 22.9930 -79.1610 175° South 434 499 37,000  Level FlightAware ADS-B
Fri 03:47:17 PM 22.9310 -79.1550 175° South 434 499 37,000  Level FlightAware ADS-B
Fri 03:47:55 PM 22.8670 -79.1490 175° South 434 499 37,000  Level FlightAware ADS-B
Fri 03:48:31 PM 22.8060 -79.1430 175° South 434 499 37,000  Level FlightAware ADS-B
Fri 03:49:08 PM 22.7430 -79.1370 175° South 434 499 37,000  Level FlightAware ADS-B
Fri 03:49:46 PM 22.6780 -79.1310 175° South 434 499 37,000  Level FlightAware ADS-B
Fri 03:50:23 PM 22.6150 -79.1250 175° South 434 499 37,000  Level FlightAware ADS-B
Fri 03:50:57 PM 22.5570 -79.1200 175° South 434 499 37,000  Level FlightAware ADS-B
Fri 03:51:34 PM 22.4940 -79.1140 175° South 434 499 37,000  Level FlightAware ADS-B
Fri 03:52:11 PM 22.4320 -79.1080 175° South 434 499 37,000  Level FlightAware ADS-B
Fri 03:52:47 PM 22.3700 -79.1020 175° South 434 499 37,000  Level FlightAware ADS-B
Fri 03:55:00 PM 22.1420 -79.0301 164° South  Level Estimated
Fri 03:56:00 PM 22.0392 -78.9978 164° South  Level Estimated
Fri 03:57:00 PM 21.9364 -78.9655 164° South  Level Estimated
Fri 03:58:00 PM 21.8335 -78.9332 164° South  Level Estimated
Fri 03:59:00 PM 21.7306 -78.9010 164° South  Level Estimated
Fri 04:00:00 PM 21.6278 -78.8689 164° South  Level Estimated
Fri 04:01:00 PM 21.5249 -78.8367 164° South  Level Estimated
Fri 04:02:00 PM 21.4220 -78.8047 164° South  Level Estimated
Fri 04:03:00 PM 21.3191 -78.7726 164° South  Level Estimated
Fri 04:04:00 PM 21.2162 -78.7407 164° South  Level Estimated
Fri 04:05:00 PM 21.1133 -78.7087 164° South  Level Estimated
Fri 04:06:00 PM 21.0104 -78.6768 164° South  Level Estimated
Fri 04:07:00 PM 20.9075 -78.6450 164° South  Level Estimated
Fri 04:08:00 PM 20.8046 -78.6132 164° South  Level Estimated
Fri 04:09:00 PM 20.7017 -78.5814 164° South  Level Estimated
Fri 04:10:00 PM 20.5988 -78.5497 164° South  Level Estimated
Fri 04:11:00 PM 20.4958 -78.5180 164° South  Level Estimated
Fri 04:12:00 PM 20.3929 -78.4864 164° South  Level Estimated
Fri 04:13:00 PM 20.2899 -78.4548 164° South  Level Estimated
Fri 04:14:00 PM 20.1870 -78.4232 164° South  Level Estimated
Fri 04:15:00 PM 20.0840 -78.3917 164° South  Level Estimated
Fri 04:16:00 PM 19.9811 -78.3603 164° South  Level Estimated
Fri 04:17:00 PM 19.8781 -78.3288 164° South  Level Estimated
Fri 04:18:00 PM 19.7751 -78.2975 164° South  Level Estimated
Fri 04:19:00 PM 19.6721 -78.2661 164° South  Level Estimated
Fri 04:20:00 PM 19.5692 -78.2348 164° South  Level Estimated
Fri 04:21:00 PM 19.4662 -78.2036 164° South  Level Estimated
Fri 04:22:00 PM 19.3632 -78.1723 164° South  Level Estimated
Fri 04:23:00 PM 19.2602 -78.1412 164° South  Level Estimated
Fri 04:24:00 PM 19.1572 -78.1100 164° South  Level Estimated
Fri 04:25:00 PM 19.0542 -78.0789 164° South  Level Estimated
Fri 04:26:00 PM 18.9512 -78.0478 164° South  Level Estimated
Fri 04:27:00 PM 18.8481 -78.0168 164° South  Level Estimated
Fri 04:28:00 PM 18.7451 -77.9858 164° South  Level Estimated
Fri 04:29:00 PM 18.6421 -77.9549 164° South  Level Estimated
Fri 04:30:00 PM 18.5390 -77.9240 164° South  Level Estimated
Fri 04:31:00 PM 18.5037 -77.9134 164° South  Level Estimated
Fri 04:32:00 PM 18.5037 -77.9134 148° Southeast  Level Estimated
Fri 04:33:00 PM 18.5037 -77.9134 148° Southeast  Level Estimated
Fri 04:34:00 PM 18.5037 -77.9134 148° Southeast  Level Estimated
Fri 04:35:00 PM 18.5037 -77.9134 148° Southeast  Level Estimated
Fri 04:36:00 PM 18.5037 -77.9134 148° Southeast  Level Estimated
Fri 04:37:00 PM 18.5037 -77.9134 148° Southeast  Level Estimated
Fri 04:38:00 PM 18.5037 -77.9134 148° Southeast  Level Estimated
Fri 04:39:00 PM 18.5037 -77.9134 148° Southeast  Level Estimated
Fri 04:40:00 PM 18.5037 -77.9134 148° Southeast  Level Estimated

Login

Don't have an account? Register now (free) for customized features, flight alerts, and more!